Kullen, Sweden

9:16 AM CEST on July 28, 2016 (GMT +0200)
Höganäs | | Change Station

Elev 0 ft 56.25 °N, 12.53 °E | Updated 5 minutes ago

Mostly Cloudy
Mostly Cloudy
69.3 °F
Feels Like 69.3 °F
N
6.2
Wind Variable Wind from WSW
Gusts 10.6 mph

Today
High -- | Low -- °F
--% Chance of Precip.
Yesterday
High -- | Low -- °F
Precip. -- in
Pressure 29.89 in
Visibility 6.2 miles
Clouds Mostly Cloudy 2300 ft
Dew Point 61 °F
Humidity 74%
Rainfall 0.00 in
Snow Depth Not available.
5:05 AM 9:26 PM
Waning Crescent, 35% visible
METAR ESTA 280650Z 27009KT 9999 BKN023 18/15 Q1012
Pressure 29.89 in
Visibility 6.2 miles
Clouds Mostly Cloudy 2300 ft
Dew Point 61 °F
Humidity 74%
Rainfall 0.00 in
Snow Depth Not available.
5:05 AM 9:26 PM
Waning Crescent, 35% visible
METAR ESTA 280650Z 27009KT 9999 BKN023 18/15 Q1012

10-Day Weather Forecast

×

Almanac

Astronomy

Jul. 28, 2016 Rise Set
Actual Time
Civil Twilight
Nautical Twilight
Astronomical Twilight
Moon
Length of Visible Light
Length of Day
Tomorrow will be .
, % of the Moon is Illuminated

Today's Extremes

Country Highs Country Lows

Community

WunderPhotos

Upload Photos

1,928,070 photos uploaded!

WunderBlog® & News

Nearby

Air Quality

  Air Quality AQ Index Pollutant
Not available.

Snow Depth

Station Depth Elevation

Earthquake Activity

City Distance Mag. Time & Date
Minimum magnitude displayed is 2.5.

Coastal Water Temperatures

Place Temperature

Stations

Nearby Weather Stations

Station Location Temp. Windchill Dew Point Humidity Wind Precip. Elev Updated Type